createdAt,value
2018-08-19T00:02:26.491Z,18.48
2018-08-19T00:05:12.508Z,18.45
2018-08-19T00:07:47.461Z,18.27
2018-08-19T00:10:19.373Z,18.38
2018-08-19T00:12:48.427Z,18.38
2018-08-19T00:15:19.614Z,18.42
2018-08-19T00:17:51.998Z,18.38
2018-08-19T00:20:28.260Z,18.27
2018-08-19T00:23:04.075Z,18.22
2018-08-19T00:25:44.681Z,18.15
2018-08-19T00:28:20.870Z,18.13
2018-08-19T00:30:59.747Z,17.88
2018-08-19T00:33:33.787Z,17.91
2018-08-19T00:36:20.142Z,17.89
2018-08-19T00:38:55.565Z,18.05
2018-08-19T00:41:33.115Z,18.01
2018-08-19T00:44:06.616Z,17.92
2018-08-19T00:46:41.138Z,17.86
2018-08-19T00:49:18.437Z,18.03
2018-08-19T00:52:00.604Z,17.89
2018-08-19T00:54:39.057Z,17.94
2018-08-19T00:57:11.705Z,17.98
2018-08-19T00:59:43.033Z,17.96
2018-08-19T01:02:16.342Z,17.69
2018-08-19T01:04:44.980Z,17.62
2018-08-19T01:07:18.295Z,17.66
2018-08-19T01:09:47.097Z,17.78
2018-08-19T01:12:15.913Z,17.58
2018-08-19T01:14:45.155Z,17.52
2018-08-19T01:17:13.760Z,17.34
2018-08-19T01:19:45.084Z,17.37
2018-08-19T01:22:18.212Z,17.32
2018-08-19T01:24:51.817Z,17.30
2018-08-19T01:27:26.035Z,17.18
2018-08-19T01:30:01.112Z,16.93
2018-08-19T01:32:38.200Z,16.84
2018-08-19T01:35:11.250Z,16.66
2018-08-19T01:37:40.675Z,16.77
2018-08-19T01:40:16.624Z,16.81
2018-08-19T01:42:49.477Z,16.83
2018-08-19T01:45:19.197Z,16.83
2018-08-19T01:47:48.059Z,16.91
2018-08-19T01:50:18.036Z,16.85
2018-08-19T01:52:49.975Z,16.93
2018-08-19T01:55:19.488Z,17.11
2018-08-19T01:57:49.549Z,17.19
2018-08-19T02:00:18.680Z,17.16
2018-08-19T02:03:01.268Z,17.34
2018-08-19T02:05:30.074Z,17.22
2018-08-19T02:08:00.343Z,17.04
2018-08-19T02:10:31.514Z,17.00
2018-08-19T02:13:01.840Z,16.96
2018-08-19T02:15:32.441Z,16.68
2018-08-19T02:18:02.716Z,16.76
2018-08-19T02:20:38.099Z,16.67
2018-08-19T02:23:09.556Z,16.69
2018-08-19T02:25:42.166Z,16.67
2018-08-19T02:28:11.246Z,16.56
2018-08-19T02:30:52.035Z,16.57
2018-08-19T02:33:21.523Z,16.54
2018-08-19T02:36:05.847Z,16.53
2018-08-19T02:38:34.774Z,16.58
2018-08-19T02:41:03.720Z,16.72
2018-08-19T02:43:32.686Z,16.73
2018-08-19T02:46:01.306Z,16.87
2018-08-19T02:48:42.965Z,16.69
2018-08-19T02:51:14.009Z,16.78
2018-08-19T02:53:45.223Z,16.82
2018-08-19T02:56:14.277Z,16.81
2018-08-19T02:58:43.623Z,16.71
2018-08-19T03:01:13.110Z,16.66
2018-08-19T03:03:41.665Z,16.59
2018-08-19T03:06:10.497Z,16.37
2018-08-19T03:08:46.889Z,16.22
2018-08-19T03:11:18.304Z,15.99
2018-08-19T03:13:46.868Z,15.96
2018-08-19T03:16:15.418Z,15.79
2018-08-19T03:18:43.942Z,15.76
2018-08-19T03:21:12.513Z,15.54
2018-08-19T03:23:41.038Z,15.59
2018-08-19T03:26:09.584Z,15.66
2018-08-19T03:28:38.126Z,15.65
2018-08-19T03:31:07.023Z,15.88
2018-08-19T03:33:35.840Z,15.83
2018-08-19T03:36:05.336Z,16.00
2018-08-19T03:38:34.253Z,16.09
2018-08-19T03:41:02.766Z,16.02
2018-08-19T03:43:31.330Z,15.97
2018-08-19T03:46:05.923Z,15.86
2018-08-19T03:48:34.672Z,15.77
2018-08-19T03:51:03.568Z,15.71
2018-08-19T03:53:32.347Z,15.59
2018-08-19T03:56:01.120Z,15.37
2018-08-19T03:58:29.664Z,15.28
2018-08-19T04:00:58.192Z,15.28
2018-08-19T04:03:27.437Z,15.13
2018-08-19T04:06:00.262Z,14.98
2018-08-19T04:08:59.678Z,15.02
2018-08-19T04:11:28.196Z,14.93
2018-08-19T04:13:56.735Z,15.07
2018-08-19T04:16:26.109Z,15.08
2018-08-19T04:19:08.135Z,15.12
2018-08-19T04:21:36.673Z,15.16
2018-08-19T04:24:05.251Z,15.34
2018-08-19T04:26:33.992Z,15.30
2018-08-19T04:29:05.377Z,15.44
2018-08-19T04:31:34.603Z,15.46
2018-08-19T04:34:03.498Z,15.48
2018-08-19T04:36:32.347Z,15.49
2018-08-19T04:39:01.251Z,15.51
2018-08-19T04:41:29.795Z,15.58
2018-08-19T04:43:58.380Z,15.62
2018-08-19T04:46:26.926Z,15.45
2018-08-19T04:48:55.488Z,15.37
2018-08-19T04:51:24.309Z,15.26
2018-08-19T04:53:53.594Z,15.06
2018-08-19T04:56:22.622Z,15.09
2018-08-19T04:58:51.202Z,15.07
2018-08-19T05:01:20.118Z,15.02
2018-08-19T05:03:48.930Z,15.14
2018-08-19T05:06:17.454Z,15.41
2018-08-19T05:08:46.288Z,15.48
2018-08-19T05:11:15.244Z,15.50
2018-08-19T05:13:43.817Z,15.65
2018-08-19T05:16:12.347Z,15.71
2018-08-19T05:18:44.571Z,15.74
2018-08-19T05:21:15.322Z,15.93
2018-08-19T05:23:44.616Z,15.90
2018-08-19T05:26:13.528Z,16.06
2018-08-19T05:28:45.327Z,16.09
2018-08-19T05:31:14.090Z,16.17
2018-08-19T05:33:43.116Z,16.30
2018-08-19T05:36:11.645Z,16.34
2018-08-19T05:38:40.168Z,16.38
2018-08-19T05:41:11.763Z,16.30
2018-08-19T05:43:40.672Z,16.40
2018-08-19T05:46:09.329Z,16.34
2018-08-19T05:48:37.991Z,16.52
2018-08-19T05:51:06.554Z,16.53
2018-08-19T05:53:35.839Z,16.65
2018-08-19T05:56:04.730Z,16.75
2018-08-19T05:58:33.266Z,16.77
2018-08-19T06:01:01.879Z,16.84
2018-08-19T06:03:30.830Z,17.00
2018-08-19T06:05:59.664Z,16.95
2018-08-19T06:08:28.204Z,17.06
2018-08-19T06:10:56.808Z,17.15
2018-08-19T06:13:28.673Z,17.27
2018-08-19T06:15:58.304Z,17.31
2018-08-19T06:18:26.864Z,17.33
2018-08-19T06:20:55.682Z,17.56
2018-08-19T06:23:24.199Z,17.71
2018-08-19T06:25:53.598Z,17.63
2018-08-19T06:28:22.135Z,17.77
2018-08-19T06:30:50.934Z,17.65
2018-08-19T06:33:19.498Z,17.68
2018-08-19T06:35:48.046Z,17.75
2018-08-19T06:38:16.564Z,17.88
2018-08-19T06:40:45.405Z,17.80
2018-08-19T06:43:14.218Z,18.05
2018-08-19T06:45:42.737Z,18.18
2018-08-19T06:48:11.769Z,18.34
2018-08-19T06:50:40.428Z,18.38
2018-08-19T06:53:14.416Z,18.61
2018-08-19T06:55:43.931Z,18.73
2018-08-19T06:58:13.068Z,18.77
2018-08-19T07:00:41.921Z,18.80
2018-08-19T07:03:10.783Z,19.05
2018-08-19T07:05:43.812Z,19.16
2018-08-19T07:08:12.973Z,19.16
2018-08-19T07:10:43.777Z,19.34
2018-08-19T07:13:22.208Z,19.44
2018-08-19T07:16:01.176Z,19.49
2018-08-19T07:18:29.930Z,19.37
2018-08-19T07:20:58.445Z,19.52
2018-08-19T07:23:28.207Z,19.53
2018-08-19T07:25:58.592Z,19.79
2018-08-19T07:28:31.096Z,19.85
2018-08-19T07:31:05.157Z,19.83
2018-08-19T07:33:35.520Z,19.92
2018-08-19T07:36:15.005Z,20.03
2018-08-19T07:38:45.966Z,20.24
2018-08-19T07:41:24.583Z,20.39
2018-08-19T07:44:02.045Z,20.57
2018-08-19T07:49:46.696Z,20.55
2018-08-19T07:52:20.189Z,20.79
2018-08-19T07:57:34.863Z,20.80
2018-08-19T08:00:16.118Z,20.76
2018-08-19T08:02:46.163Z,20.86
2018-08-19T08:05:14.772Z,21.13
2018-08-19T08:07:47.949Z,21.32
2018-08-19T08:10:18.122Z,20.88
2018-08-19T08:13:17.478Z,20.95
2018-08-19T08:15:55.998Z,20.99
2018-08-19T08:18:31.867Z,21.25
2018-08-19T08:21:09.097Z,21.57
2018-08-19T08:23:42.348Z,21.61
2018-08-19T08:26:16.335Z,21.64
2018-08-19T08:28:58.819Z,21.64
2018-08-19T08:31:28.261Z,22.05
2018-08-19T08:34:00.636Z,22.35
2018-08-19T08:36:30.618Z,22.59
2018-08-19T08:39:03.914Z,22.94
2018-08-19T08:41:42.672Z,22.77
2018-08-19T08:44:12.262Z,23.06
2018-08-19T08:46:40.857Z,22.97
2018-08-19T08:49:09.895Z,23.26
2018-08-19T08:51:38.757Z,23.46
2018-08-19T08:54:07.408Z,23.77
2018-08-19T08:56:35.968Z,23.86
2018-08-19T08:59:04.859Z,24.14
2018-08-19T09:01:33.998Z,24.21
2018-08-19T09:04:02.604Z,24.30
2018-08-19T09:06:31.195Z,24.46
2018-08-19T09:08:59.760Z,24.48
2018-08-19T09:11:28.354Z,24.53
2018-08-19T09:13:57.379Z,24.55
2018-08-19T09:16:26.389Z,24.48
2018-08-19T09:18:55.521Z,24.73
2018-08-19T09:21:24.142Z,24.89
2018-08-19T09:23:52.703Z,24.72
2018-08-19T09:26:21.969Z,24.91
2018-08-19T09:28:50.530Z,25.11
2018-08-19T09:31:19.091Z,25.18
2018-08-19T09:33:47.624Z,25.48
2018-08-19T09:36:16.187Z,25.69
2018-08-19T09:38:44.759Z,25.62
2018-08-19T09:41:13.636Z,25.80
2018-08-19T09:43:42.172Z,26.07
2018-08-19T09:46:10.743Z,26.15
2018-08-19T09:48:39.465Z,25.64
2018-08-19T09:51:13.003Z,25.56
2018-08-19T09:53:42.286Z,25.43
2018-08-19T09:56:11.799Z,25.80
2018-08-19T09:58:41.885Z,26.17
2018-08-19T10:01:19.431Z,26.14
2018-08-19T10:03:48.000Z,26.14
2018-08-19T10:06:16.531Z,26.08
2018-08-19T10:08:45.495Z,26.33
2018-08-19T10:11:14.074Z,26.38
2018-08-19T10:13:46.112Z,26.90
2018-08-19T10:16:14.597Z,27.09
2018-08-19T10:18:43.176Z,27.35
2018-08-19T10:21:18.488Z,27.23
2018-08-19T10:23:47.350Z,27.55
2018-08-19T10:26:15.872Z,26.70
2018-08-19T10:28:44.428Z,26.93
2018-08-19T10:31:18.401Z,27.48
2018-08-19T10:33:47.645Z,27.13
2018-08-19T10:36:16.192Z,27.46
2018-08-19T10:38:45.719Z,27.77
2018-08-19T10:41:14.314Z,27.39
2018-08-19T10:43:42.928Z,27.82
2018-08-19T10:46:11.503Z,27.81
2018-08-19T10:48:41.364Z,26.51
2018-08-19T10:51:11.821Z,27.42
2018-08-19T10:53:40.757Z,27.64
2018-08-19T10:56:09.321Z,27.60
2018-08-19T10:58:40.412Z,27.88
2018-08-19T11:01:09.129Z,27.90
2018-08-19T11:03:38.089Z,28.02
2018-08-19T11:06:07.186Z,27.99
2018-08-19T11:08:36.260Z,27.29
2018-08-19T11:11:05.036Z,27.75
2018-08-19T11:13:34.783Z,27.63
2018-08-19T11:16:03.400Z,28.36
2018-08-19T11:18:39.530Z,27.95
2018-08-19T11:21:11.132Z,28.40
2018-08-19T11:23:42.987Z,29.15
2018-08-19T11:26:12.490Z,28.05
2018-08-19T11:28:50.710Z,27.28
2018-08-19T11:31:26.421Z,28.08
2018-08-19T11:34:02.065Z,28.79
2018-08-19T11:36:36.755Z,28.93
2018-08-19T11:39:11.733Z,28.37
2018-08-19T11:41:40.340Z,28.39
2018-08-19T11:44:13.964Z,28.65
2018-08-19T11:46:42.503Z,27.92
2018-08-19T11:49:12.334Z,27.50
2018-08-19T11:51:53.764Z,28.49
2018-08-19T11:54:23.189Z,28.70
2018-08-19T11:56:58.082Z,28.93
2018-08-19T11:59:31.996Z,29.59
2018-08-19T12:02:00.590Z,29.78
2018-08-19T12:04:29.381Z,29.89
2018-08-19T12:06:58.036Z,29.96
2018-08-19T12:09:26.626Z,30.22
2018-08-19T12:11:55.222Z,29.30
2018-08-19T12:14:24.208Z,29.03
2018-08-19T12:16:54.791Z,28.90
2018-08-19T12:19:25.746Z,29.28
2018-08-19T12:21:56.552Z,29.77
2018-08-19T12:24:38.317Z,30.32
2018-08-19T12:27:08.347Z,28.91
2018-08-19T12:29:37.973Z,29.49
2018-08-19T12:32:16.995Z,30.77
2018-08-19T12:34:48.156Z,29.88
2018-08-19T12:37:17.868Z,29.51
2018-08-19T12:39:46.466Z,30.39
2018-08-19T12:42:15.105Z,29.50
2018-08-19T12:44:44.569Z,29.65
2018-08-19T12:47:17.592Z,29.83
2018-08-19T12:49:49.136Z,30.49
2018-08-19T12:52:20.572Z,30.30
2018-08-19T12:54:58.921Z,29.43
2018-08-19T12:57:28.181Z,30.61
2018-08-19T13:00:07.575Z,31.30
2018-08-19T13:02:43.112Z,30.95
2018-08-19T13:05:12.575Z,31.78
2018-08-19T13:07:41.118Z,31.90
2018-08-19T13:10:09.804Z,31.98
2018-08-19T13:12:54.116Z,32.30
2018-08-19T13:15:24.325Z,32.85
2018-08-19T13:17:53.127Z,32.93
2018-08-19T13:20:21.723Z,32.71
2018-08-19T13:22:56.046Z,30.63
2018-08-19T13:25:25.626Z,30.96
2018-08-19T13:27:54.178Z,30.20
2018-08-19T13:30:23.081Z,30.99
2018-08-19T13:32:52.351Z,31.65
2018-08-19T13:35:34.387Z,31.76
2018-08-19T13:38:03.541Z,30.72
2018-08-19T13:40:32.098Z,32.55
2018-08-19T13:43:01.202Z,33.05
2018-08-19T13:45:30.604Z,33.18
2018-08-19T13:47:59.526Z,33.46
2018-08-19T13:50:28.156Z,32.21
2018-08-19T13:52:57.060Z,32.42
2018-08-19T13:55:25.682Z,32.29
2018-08-19T13:57:55.858Z,32.75
2018-08-19T14:00:28.550Z,33.05
2018-08-19T14:02:57.066Z,33.20
2018-08-19T14:05:25.894Z,32.93
2018-08-19T14:07:54.412Z,32.01
2018-08-19T14:10:23.338Z,31.96
2018-08-19T14:12:51.872Z,32.19
2018-08-19T14:15:20.471Z,32.11
2018-08-19T14:17:49.292Z,32.36
2018-08-19T14:20:18.371Z,33.22
2018-08-19T14:22:46.903Z,33.17
2018-08-19T14:25:16.772Z,31.02
2018-08-19T14:28:06.120Z,31.93
2018-08-19T14:39:49.035Z,32.02
2018-08-19T14:42:40.857Z,31.88
2018-08-19T14:45:22.288Z,31.14
2018-08-19T14:47:59.247Z,31.88
2018-08-19T14:50:35.427Z,32.09
2018-08-19T14:53:20.403Z,32.19
2018-08-19T14:56:10.795Z,32.16
2018-08-19T14:58:59.535Z,32.17
2018-08-19T15:01:37.244Z,32.11
2018-08-19T15:04:23.183Z,32.04
2018-08-19T15:09:49.452Z,31.46
2018-08-19T15:12:29.851Z,30.87
2018-08-19T15:15:15.083Z,31.08
2018-08-19T15:20:47.243Z,31.99
2018-08-19T15:23:35.803Z,31.84
2018-08-19T15:26:09.985Z,31.95
2018-08-19T15:28:52.008Z,31.85
2018-08-19T15:31:34.122Z,30.47
2018-08-19T15:34:09.485Z,31.52
2018-08-19T15:36:39.767Z,31.58
2018-08-19T15:39:09.260Z,31.73
2018-08-19T15:41:41.930Z,31.50
2018-08-19T15:44:14.173Z,31.77
2018-08-19T15:46:43.035Z,32.10
2018-08-19T15:49:11.624Z,31.82
2018-08-19T15:51:40.796Z,31.89
2018-08-19T15:54:10.377Z,31.91
2018-08-19T15:56:38.963Z,31.96
2018-08-19T15:59:09.939Z,32.32
2018-08-19T16:01:38.937Z,31.30
2018-08-19T16:04:15.937Z,31.67
2018-08-19T16:06:46.042Z,31.81
2018-08-19T16:09:15.890Z,32.07
2018-08-19T16:11:45.681Z,32.18
2018-08-19T16:14:33.153Z,32.60
2018-08-19T16:17:03.097Z,32.62
2018-08-19T16:19:31.659Z,32.60
2018-08-19T16:22:01.740Z,30.76
2018-08-19T16:24:34.292Z,30.31
2018-08-19T16:27:07.776Z,30.98
2018-08-19T16:29:40.370Z,31.78
2018-08-19T16:32:14.595Z,32.12
2018-08-19T16:34:47.598Z,32.28
2018-08-19T16:37:19.034Z,31.79
2018-08-19T16:39:57.071Z,31.95
2018-08-19T16:42:26.660Z,32.13
2018-08-19T16:44:55.636Z,31.77
2018-08-19T16:47:24.415Z,31.91
2018-08-19T16:49:53.210Z,31.84
2018-08-19T16:52:21.838Z,32.43
2018-08-19T16:54:51.371Z,32.61
2018-08-19T16:57:23.375Z,32.22
2018-08-19T16:59:55.412Z,31.98
2018-08-19T17:02:27.397Z,31.58
2018-08-19T17:05:01.862Z,31.31
2018-08-19T17:07:38.649Z,30.95
2018-08-19T17:10:07.217Z,30.88
2018-08-19T17:12:35.761Z,30.82
2018-08-19T17:15:04.331Z,30.74
2018-08-19T17:17:32.869Z,31.00
2018-08-19T17:20:01.393Z,31.36
2018-08-19T17:22:29.959Z,31.47
2018-08-19T17:24:59.364Z,31.40
2018-08-19T17:27:27.927Z,31.25
2018-08-19T17:29:56.525Z,31.34
2018-08-19T17:32:25.094Z,31.03
2018-08-19T17:34:54.030Z,30.95
2018-08-19T17:37:24.512Z,30.68
2018-08-19T17:39:53.162Z,30.73
2018-08-19T17:42:21.706Z,30.65
2018-08-19T17:44:50.995Z,30.71
2018-08-19T17:47:19.791Z,30.61
2018-08-19T17:49:48.690Z,30.37
2018-08-19T17:52:17.607Z,30.12
2018-08-19T17:54:46.408Z,29.81
2018-08-19T17:57:15.833Z,29.43
2018-08-19T17:59:44.409Z,29.31
2018-08-19T18:02:12.908Z,29.38
2018-08-19T18:04:47.115Z,29.50
2018-08-19T18:07:27.886Z,29.53
2018-08-19T18:09:57.866Z,29.57
2018-08-19T18:12:26.480Z,29.64
2018-08-19T18:14:55.330Z,29.57
2018-08-19T18:17:23.883Z,29.44
2018-08-19T18:19:53.242Z,29.53
2018-08-19T18:22:22.291Z,29.29
2018-08-19T18:25:06.455Z,29.18
2018-08-19T18:27:35.161Z,29.06
2018-08-19T18:30:03.942Z,28.80
2018-08-19T18:32:32.551Z,28.60
2018-08-19T18:35:01.265Z,28.52
2018-08-19T18:37:29.830Z,28.38
2018-08-19T18:39:59.577Z,28.31
2018-08-19T18:42:37.929Z,28.13
2018-08-19T18:45:11.761Z,28.05
2018-08-19T18:47:47.411Z,27.87
2018-08-19T18:50:16.424Z,27.85
2018-08-19T18:52:44.982Z,27.77
2018-08-19T18:55:13.494Z,27.63
2018-08-19T18:57:47.251Z,27.49
2018-08-19T19:00:15.797Z,27.35
2018-08-19T19:02:48.906Z,27.39
2018-08-19T19:05:29.190Z,27.24
2018-08-19T19:08:00.715Z,27.26
2018-08-19T19:10:32.317Z,27.23
2018-08-19T19:13:00.956Z,27.12
2018-08-19T19:15:30.032Z,26.96
2018-08-19T19:17:58.636Z,26.88
2018-08-19T19:20:27.369Z,26.93
2018-08-19T19:23:01.890Z,26.88
2018-08-19T19:25:36.065Z,26.68
2018-08-19T19:28:04.708Z,26.66
2018-08-19T19:30:34.170Z,25.94
2018-08-19T19:33:10.703Z,25.61
2018-08-19T19:35:39.217Z,25.49
2018-08-19T19:38:08.420Z,25.20
2018-08-19T19:40:39.000Z,25.62
2018-08-19T19:43:07.857Z,25.89
2018-08-19T19:45:42.700Z,25.99
2018-08-19T19:48:11.823Z,26.01
2018-08-19T19:50:41.272Z,26.13
2018-08-19T19:53:10.381Z,26.25
2018-08-19T19:55:38.896Z,26.39
2018-08-19T19:58:07.562Z,26.38
2018-08-19T20:00:50.994Z,26.32
2018-08-19T20:03:19.908Z,26.13
2018-08-19T20:05:48.455Z,26.09
2018-08-19T20:08:17.397Z,26.08
2018-08-19T20:10:46.637Z,25.50
2018-08-19T20:13:15.317Z,25.15
2018-08-19T20:15:43.868Z,25.13
2018-08-19T20:18:12.418Z,24.98
2018-08-19T20:20:40.944Z,24.77
2018-08-19T20:23:13.888Z,24.64
2018-08-19T20:25:42.413Z,24.75
2018-08-19T20:28:11.052Z,24.73
2018-08-19T20:30:40.255Z,24.91
2018-08-19T20:33:16.945Z,24.78
2018-08-19T20:35:45.601Z,24.75
2018-08-19T20:38:14.197Z,24.75
2018-08-19T20:40:42.774Z,24.65
2018-08-19T20:43:17.926Z,24.58
2018-08-19T20:45:46.867Z,24.51
2018-08-19T20:48:17.960Z,24.58
2018-08-19T20:50:47.144Z,24.54
2018-08-19T20:53:17.193Z,24.70
2018-08-19T20:55:45.844Z,24.65
2018-08-19T20:58:14.415Z,24.48
2018-08-19T21:00:43.008Z,24.55
2018-08-19T21:03:11.772Z,24.59
2018-08-19T21:05:40.701Z,24.58
2018-08-19T21:08:13.391Z,24.50
2018-08-19T21:10:43.806Z,24.52
2018-08-19T21:13:13.536Z,24.42
2018-08-19T21:15:45.241Z,24.41
2018-08-19T21:18:14.081Z,24.44
2018-08-19T21:20:43.174Z,24.46
2018-08-19T21:23:12.041Z,24.44
2018-08-19T21:25:47.846Z,24.37
2018-08-19T21:28:16.905Z,24.43
2018-08-19T21:30:45.474Z,24.14
2018-08-19T21:33:14.071Z,24.12
2018-08-19T21:35:48.001Z,23.92
2018-08-19T21:38:16.804Z,23.75
2018-08-19T21:40:45.354Z,23.72
2018-08-19T21:43:14.155Z,23.55
2018-08-19T21:45:42.754Z,23.53
2018-08-19T21:48:14.460Z,23.38
2018-08-19T21:50:43.145Z,23.38
2018-08-19T21:53:16.025Z,23.46
2018-08-19T21:55:45.893Z,23.45
2018-08-19T21:58:14.474Z,23.49
2018-08-19T22:00:53.069Z,23.40
2018-08-19T22:03:26.920Z,23.33
2018-08-19T22:05:56.457Z,23.34
2018-08-19T22:08:25.245Z,23.36
2018-08-19T22:10:53.820Z,23.45
2018-08-19T22:13:22.410Z,23.53
2018-08-19T22:15:51.024Z,23.40
2018-08-19T22:18:22.080Z,23.40
2018-08-19T22:21:03.381Z,23.17
2018-08-19T22:23:37.267Z,23.19
2018-08-19T22:26:06.329Z,23.16
2018-08-19T22:28:34.928Z,23.10
2018-08-19T22:31:15.110Z,23.06
2018-08-19T22:33:45.912Z,22.85
2018-08-19T22:36:14.455Z,22.70
2018-08-19T22:38:44.022Z,22.64
2018-08-19T22:41:12.617Z,22.53
2018-08-19T22:43:41.135Z,22.56
2018-08-19T22:46:09.743Z,22.60
2018-08-19T22:48:40.562Z,22.65
2018-08-19T22:51:10.710Z,22.66
2018-08-19T22:53:39.278Z,22.61
2018-08-19T22:56:07.908Z,22.70
2018-08-19T22:58:36.881Z,22.62
2018-08-19T23:01:06.586Z,22.48
2018-08-19T23:03:35.193Z,22.60
2018-08-19T23:06:03.816Z,22.69
2018-08-19T23:08:33.762Z,22.72
2018-08-19T23:11:03.499Z,22.75
2018-08-19T23:13:43.214Z,22.56
2018-08-19T23:16:12.641Z,22.55
2018-08-19T23:18:41.916Z,22.69
2018-08-19T23:21:11.259Z,22.60
2018-08-19T23:23:40.848Z,22.55
2018-08-19T23:26:09.433Z,22.48
2018-08-19T23:28:37.973Z,22.55
2018-08-19T23:31:06.565Z,22.59
2018-08-19T23:33:35.904Z,22.41
2018-08-19T23:36:04.503Z,22.44
2018-08-19T23:38:33.048Z,22.47
2018-08-19T23:41:01.616Z,22.40
2018-08-19T23:43:30.152Z,22.46
2018-08-19T23:45:59.070Z,22.43
2018-08-19T23:48:27.601Z,21.98
2018-08-19T23:50:56.184Z,21.70
2018-08-19T23:53:25.333Z,21.81
2018-08-19T23:55:54.324Z,21.98
2018-08-19T23:58:22.858Z,21.99
